Kirtland, New Mexico
Current Conditions -  °F | °C
As of 5:53 PM on Saturday 25 Oct 2014 (Local Time) from KFMN Reporting Station
Clear Clear  
Wind Chill: 75°   Ceiling: Unl
Heat Index: 75°   Visibility: 10mi
Dew Point: 33°   Wind: 5mph
Humidity: 22%   Direction: 320°NW
Pressure: 30.16"   Gusts: NA
Location:  36.74°N, 108.34°W
Report Text: KFMN 252353Z 32004KT 10SM CLR 24/01 A3016 RMK AO2 SLP177 T02390006 10256 20189 57017
Loading
Personal Weather Stations






























Interactive Weather Map
Tropical Storm Tracking
New forecast layout! Learn more

10-Day Weather Forecast

Advertisements
Track Severe Weather on mobile